Time,TemperatureF,DewpointF,PressureIn,WindDirection,WindDirectionDegrees,WindSpeedMPH,WindSpeedGustMPH,Humidity,HourlyPrecipIn,Conditions,Clouds,dailyrainin,SoftwareType,DateUTC
2013-05-18 00:00:00,66.0,64.2,29.95,SE,128,1.0,3.0,94,0.00,,SKC,0.00,VWS V12.07,2013-05-18 05:00:00,
2013-05-18 00:07:00,65.8,64.0,29.95,SE,141,1.0,3.0,94,0.00,,SKC,0.00,VWS V12.07,2013-05-18 05:07:00,
2013-05-18 00:14:00,65.8,64.3,29.95,SE,137,1.0,3.0,95,0.00,,SKC,0.00,VWS V12.07,2013-05-18 05:14:00,
2013-05-18 00:20:00,65.6,64.1,29.95,SE,135,1.0,3.0,95,0.00,,SKC,0.00,VWS V12.07,2013-05-18 05:20:00,
2013-05-18 00:27:00,65.5,64.0,29.96,SE,125,2.0,3.0,95,0.00,,SKC,0.00,VWS V12.07,2013-05-18 05:27:00,
2013-05-18 00:34:00,65.4,63.9,29.96,SE,132,2.0,2.0,95,0.00,,SKC,0.00,VWS V12.07,2013-05-18 05:34:00,
2013-05-18 00:40:00,65.4,63.9,29.96,SE,146,1.0,2.0,95,0.00,,SKC,0.00,VWS V12.07,2013-05-18 05:40:00,
2013-05-18 00:47:00,65.4,64.2,29.96,SSE,150,1.0,3.0,96,0.00,,SKC,0.00,VWS V12.07,2013-05-18 05:47:00,
2013-05-18 00:54:00,65.4,64.2,29.96,SSE,148,0.0,3.0,96,0.00,,SKC,0.00,VWS V12.07,2013-05-18 05:54:00,
2013-05-18 01:00:00,65.2,64.0,29.96,SSE,148,0.0,3.0,96,0.00,,SKC,0.00,VWS V12.07,2013-05-18 06:00:00,
2013-05-18 01:07:00,65.1,63.9,29.95,South,179,0.0,0.0,96,0.00,,SKC,0.00,VWS V12.07,2013-05-18 06:07:00,
2013-05-18 01:13:00,65.0,63.8,29.95,South,179,0.0,0.0,96,0.00,,SKC,0.00,VWS V12.07,2013-05-18 06:13:00,
2013-05-18 01:19:00,64.9,63.7,29.95,SSW,194,0.0,0.0,96,0.00,,SKC,0.00,VWS V12.07,2013-05-18 06:19:00,
2013-05-18 01:25:00,65.0,64.1,29.95,SE,135,0.0,0.0,97,0.00,,SKC,0.00,VWS V12.07,2013-05-18 06:25:00,
2013-05-18 01:31:00,65.0,64.1,29.95,South,190,2.0,2.0,97,0.00,,SKC,0.00,VWS V12.07,2013-05-18 06:31:00,
2013-05-18 01:38:00,65.0,64.1,29.95,SE,141,1.0,3.0,97,0.00,,SKC,0.00,VWS V12.07,2013-05-18 06:38:00,
2013-05-18 01:44:00,65.0,64.1,29.95,SE,141,2.0,3.0,97,0.00,,SKC,0.00,VWS V12.07,2013-05-18 06:44:00,
2013-05-18 01:51:00,65.0,64.1,29.96,SE,133,1.0,3.0,97,0.00,,SKC,0.00,VWS V12.07,2013-05-18 06:51:00,
2013-05-18 01:58:00,64.9,64.0,29.96,SE,135,1.0,3.0,97,0.00,,SKC,0.00,VWS V12.07,2013-05-18 06:58:00,
2013-05-18 02:04:00,64.8,63.9,29.96,SE,136,0.0,2.0,97,0.00,,SKC,0.00,VWS V12.07,2013-05-18 07:04:00,
2013-05-18 02:11:00,64.7,63.8,29.96,SE,134,0.0,2.0,97,0.00,,SKC,0.00,VWS V12.07,2013-05-18 07:11:00,
2013-05-18 02:18:00,64.6,63.7,29.96,SE,135,1.0,2.0,97,0.00,,SKC,0.00,VWS V12.07,2013-05-18 07:18:00,
2013-05-18 02:25:00,64.5,63.6,29.95,SE,145,1.0,2.0,97,0.00,,SKC,0.00,VWS V12.07,2013-05-18 07:25:00,
2013-05-18 02:30:00,64.5,63.6,29.95,SE,140,1.0,2.0,97,0.00,,SKC,0.00,VWS V12.07,2013-05-18 07:30:00,
2013-05-18 02:36:00,64.4,63.5,29.96,SE,125,0.0,2.0,97,0.00,,SKC,0.00,VWS V12.07,2013-05-18 07:36:00,
2013-05-18 02:43:00,64.3,63.4,29.95,SE,136,0.0,2.0,97,0.00,,SKC,0.00,VWS V12.07,2013-05-18 07:43:00,
2013-05-18 02:48:00,64.2,63.3,29.95,SE,138,0.0,2.0,97,0.00,,SKC,0.00,VWS V12.07,2013-05-18 07:48:00,
2013-05-18 02:55:00,64.3,63.4,29.95,SE,138,0.0,2.0,97,0.00,,SKC,0.00,VWS V12.07,2013-05-18 07:55:00,
2013-05-18 03:01:00,64.2,63.3,29.95,SE,138,0.0,0.0,97,0.00,,SKC,0.00,VWS V12.07,2013-05-18 08:01:00,
2013-05-18 03:08:00,64.2,63.3,29.96,SSE,148,1.0,2.0,97,0.00,,SKC,0.00,VWS V12.07,2013-05-18 08:08:00,
2013-05-18 03:14:00,64.2,63.3,29.95,SE,138,0.0,2.0,97,0.00,,SKC,0.00,VWS V12.07,2013-05-18 08:14:00,
2013-05-18 03:20:00,64.2,63.3,29.95,SE,134,1.0,2.0,97,0.00,,SKC,0.00,VWS V12.07,2013-05-18 08:20:00,
2013-05-18 03:26:00,64.0,63.1,29.95,SE,131,3.0,3.0,97,0.00,,SKC,0.00,VWS V12.07,2013-05-18 08:26:00,
2013-05-18 03:33:00,64.0,63.1,29.95,SE,142,1.0,3.0,97,0.00,,SKC,0.00,VWS V12.07,2013-05-18 08:33:00,
2013-05-18 03:38:00,63.9,63.3,29.95,SSE,148,0.0,3.0,98,0.00,,SKC,0.00,VWS V12.07,2013-05-18 08:38:00,
2013-05-18 03:44:00,63.9,63.3,29.95,SSE,148,1.0,3.0,98,0.00,,SKC,0.00,VWS V12.07,2013-05-18 08:44:00,
2013-05-18 03:51:00,63.8,63.2,29.95,SSE,159,1.0,3.0,98,0.00,,SKC,0.00,VWS V12.07,2013-05-18 08:51:00,
2013-05-18 03:58:00,63.7,63.1,29.95,SE,139,1.0,3.0,98,0.00,,SKC,0.00,VWS V12.07,2013-05-18 08:58:00,
2013-05-18 04:03:00,63.7,63.1,29.95,SE,136,1.0,2.0,98,0.00,,SKC,0.00,VWS V12.07,2013-05-18 09:03:00,
2013-05-18 04:09:00,63.7,63.1,29.95,SE,141,1.0,2.0,98,0.00,,SKC,0.00,VWS V12.07,2013-05-18 09:09:00,
2013-05-18 04:17:00,63.7,63.1,29.95,ESE,123,1.0,3.0,98,0.00,,SKC,0.00,VWS V12.07,2013-05-18 09:17:00,
2013-05-18 04:23:00,63.6,63.0,29.95,SE,135,1.0,3.0,98,0.00,,SKC,0.00,VWS V12.07,2013-05-18 09:23:00,
2013-05-18 04:28:00,63.5,62.9,29.95,ESE,110,0.0,3.0,98,0.00,,SKC,0.00,VWS V12.07,2013-05-18 09:28:00,
2013-05-18 04:33:00,63.5,62.9,29.95,ESE,117,0.0,0.0,98,0.00,,SKC,0.00,VWS V12.07,2013-05-18 09:33:00,
2013-05-18 04:41:00,63.4,62.8,29.95,SE,135,0.0,0.0,98,0.00,,SKC,0.00,VWS V12.07,2013-05-18 09:41:00,
2013-05-18 04:47:00,63.3,62.7,29.95,SE,135,0.0,0.0,98,0.00,,SKC,0.00,VWS V12.07,2013-05-18 09:47:00,
2013-05-18 04:53:00,63.2,62.6,29.95,South,169,0.0,0.0,98,0.00,,SKC,0.00,VWS V12.07,2013-05-18 09:53:00,
2013-05-18 05:00:00,63.3,62.7,29.95,SE,135,0.0,0.0,98,0.00,,SKC,0.00,VWS V12.07,2013-05-18 10:00:00,
2013-05-18 05:07:00,63.4,62.8,29.95,SE,131,0.0,0.0,98,0.00,,SKC,0.00,VWS V12.07,2013-05-18 10:07:00,
2013-05-18 05:13:00,63.3,62.7,29.95,SE,135,1.0,2.0,98,0.00,,SKC,0.00,VWS V12.07,2013-05-18 10:13:00,
2013-05-18 05:20:00,63.3,62.7,29.95,SE,135,0.0,3.0,98,0.00,,SKC,0.00,VWS V12.07,2013-05-18 10:20:00,
2013-05-18 05:27:00,63.2,62.6,29.95,SE,139,1.0,3.0,98,0.00,,SKC,0.00,VWS V12.07,2013-05-18 10:27:00,
2013-05-18 05:33:00,63.1,62.5,29.95,SE,141,0.0,1.0,98,0.00,,SKC,0.00,VWS V12.07,2013-05-18 10:33:00,
2013-05-18 05:39:00,63.1,62.5,29.96,SE,146,2.0,3.0,98,0.00,,SKC,0.00,VWS V12.07,2013-05-18 10:39:00,
2013-05-18 05:46:00,63.1,62.5,29.95,SE,131,1.0,3.0,98,0.00,,SKC,0.00,VWS V12.07,2013-05-18 10:46:00,
2013-05-18 05:53:00,63.1,62.5,29.96,SSE,158,2.0,3.0,98,0.00,,SKC,0.00,VWS V12.07,2013-05-18 10:53:00,
2013-05-18 05:59:00,63.1,62.5,29.96,SE,134,2.0,3.0,98,0.00,,SKC,0.00,VWS V12.07,2013-05-18 10:59:00,
2013-05-18 06:05:00,63.1,62.5,29.96,SE,146,2.0,4.0,98,0.00,,SKC,0.00,VWS V12.07,2013-05-18 11:05:00,
2013-05-18 06:11:00,63.1,62.5,29.96,ESE,122,2.0,4.0,98,0.00,,SKC,0.00,VWS V12.07,2013-05-18 11:11:00,
2013-05-18 06:18:00,63.2,62.6,29.96,SE,128,3.0,5.0,98,0.00,,SKC,0.00,VWS V12.07,2013-05-18 11:18:00,
2013-05-18 06:23:00,63.2,62.6,29.96,SSE,150,2.0,5.0,98,0.00,,SKC,0.00,VWS V12.07,2013-05-18 11:23:00,
2013-05-18 06:30:00,63.3,63.0,29.96,SSE,161,2.0,6.0,99,0.00,,SKC,0.00,VWS V12.07,2013-05-18 11:30:00,
2013-05-18 06:36:00,63.5,63.2,29.96,SSE,148,0.0,4.0,99,0.00,,SKC,0.00,VWS V12.07,2013-05-18 11:36:00,
2013-05-18 06:43:00,63.6,63.3,29.97,SE,141,2.0,6.0,99,0.00,,SKC,0.00,VWS V12.07,2013-05-18 11:43:00,
2013-05-18 06:48:00,63.7,63.4,29.97,SSE,148,2.0,6.0,99,0.00,,SKC,0.00,VWS V12.07,2013-05-18 11:48:00,
2013-05-18 06:54:00,63.7,63.4,29.97,South,189,0.0,6.0,99,0.00,,SKC,0.00,VWS V12.07,2013-05-18 11:54:00,
2013-05-18 07:00:00,63.8,63.5,29.97,SSE,148,2.0,6.0,99,0.00,,SKC,0.00,VWS V12.07,2013-05-18 12:00:00,
2013-05-18 07:07:00,63.9,63.6,29.97,SE,135,6.0,6.0,99,0.00,,SKC,0.00,VWS V12.07,2013-05-18 12:07:00,
2013-05-18 07:13:00,63.9,63.6,29.97,SSE,154,2.0,8.0,99,0.00,,SKC,0.00,VWS V12.07,2013-05-18 12:13:00,
2013-05-18 07:18:00,64.0,63.7,29.97,SE,139,4.0,8.0,99,0.00,,SKC,0.00,VWS V12.07,2013-05-18 12:18:00,
2013-05-18 07:25:00,64.1,63.8,29.98,SSW,195,4.0,8.0,99,0.00,,SKC,0.00,VWS V12.07,2013-05-18 12:25:00,
2013-05-18 07:30:00,64.1,63.8,29.98,ESE,117,4.0,8.0,99,0.00,,SKC,0.00,VWS V12.07,2013-05-18 12:30:00,
2013-05-18 07:36:00,64.2,63.9,29.98,SE,131,2.0,5.0,99,0.00,,SKC,0.00,VWS V12.07,2013-05-18 12:36:00,
2013-05-18 07:43:00,64.3,64.0,29.98,SE,146,2.0,8.0,99,0.00,,SKC,0.00,VWS V12.07,2013-05-18 12:43:00,
2013-05-18 07:48:00,64.4,64.1,29.99,SSE,165,3.0,8.0,99,0.00,,SKC,0.00,VWS V12.07,2013-05-18 12:48:00,
2013-05-18 07:54:00,64.5,64.2,29.99,SSE,157,2.0,8.0,99,0.00,,SKC,0.00,VWS V12.07,2013-05-18 12:54:00,
2013-05-18 07:59:00,64.7,64.4,29.99,SE,145,2.0,8.0,99,0.00,,SKC,0.00,VWS V12.07,2013-05-18 12:59:00,
2013-05-18 08:06:00,64.8,64.5,29.99,SSE,148,2.0,7.0,99,0.00,,SKC,0.00,VWS V12.07,2013-05-18 13:06:00,
2013-05-18 08:13:00,64.9,64.6,29.99,SSE,153,2.0,7.0,99,0.00,,SKC,0.00,VWS V12.07,2013-05-18 13:13:00,
2013-05-18 08:18:00,65.1,64.8,29.99,South,169,2.0,7.0,99,0.00,,SKC,0.00,VWS V12.07,2013-05-18 13:18:00,
2013-05-18 08:24:00,65.2,64.9,29.99,SE,133,1.0,7.0,99,0.00,,SKC,0.00,VWS V12.07,2013-05-18 13:24:00,
2013-05-18 08:30:00,65.4,65.1,29.99,SE,134,0.0,7.0,99,0.00,,SKC,0.00,VWS V12.07,2013-05-18 13:30:00,
2013-05-18 08:36:00,65.7,65.4,30.00,SSW,212,0.0,5.0,99,0.00,,SKC,0.00,VWS V12.07,2013-05-18 13:36:00,
2013-05-18 08:43:00,66.0,65.7,30.00,SE,136,1.0,5.0,99,0.00,,SKC,0.00,VWS V12.07,2013-05-18 13:43:00,
2013-05-18 08:49:00,66.2,65.6,30.00,SE,142,1.0,5.0,98,0.00,,SKC,0.00,VWS V12.07,2013-05-18 13:49:00,
2013-05-18 08:56:00,66.5,65.9,30.00,SSE,150,2.0,5.0,98,0.00,,SKC,0.00,VWS V12.07,2013-05-18 13:56:00,
2013-05-18 09:03:00,66.9,66.3,29.99,SSE,148,3.0,4.0,98,0.00,,SKC,0.00,VWS V12.07,2013-05-18 14:03:00,
2013-05-18 09:09:00,67.2,66.6,29.99,South,172,4.0,5.0,98,0.00,,SKC,0.00,VWS V12.07,2013-05-18 14:09:00,
2013-05-18 09:16:00,67.2,66.6,29.99,SE,140,4.0,7.0,98,0.00,,SKC,0.00,VWS V12.07,2013-05-18 14:16:00,
2013-05-18 09:23:00,67.5,66.6,29.99,SE,126,3.0,7.0,97,0.00,,SKC,0.00,VWS V12.07,2013-05-18 14:23:00,
2013-05-18 09:29:00,67.4,66.5,29.99,SSE,167,4.0,7.0,97,0.00,,SKC,0.00,VWS V12.07,2013-05-18 14:29:00,
2013-05-18 09:36:00,67.4,66.2,29.99,ESE,113,4.0,6.0,96,0.00,,SKC,0.00,VWS V12.07,2013-05-18 14:36:00,
2013-05-18 09:43:00,67.7,66.5,29.99,SE,136,2.0,7.0,96,0.00,,SKC,0.00,VWS V12.07,2013-05-18 14:43:00,
2013-05-18 09:49:00,68.2,67.0,29.99,South,180,6.0,7.0,96,0.00,,SKC,0.00,VWS V12.07,2013-05-18 14:49:00,
2013-05-18 09:56:00,68.7,67.2,29.99,SE,136,3.0,8.0,95,0.00,,SKC,0.00,VWS V12.07,2013-05-18 14:56:00,
2013-05-18 10:03:00,69.1,67.3,29.99,ESE,122,3.0,7.0,94,0.00,,SKC,0.00,VWS V12.07,2013-05-18 15:03:00,
2013-05-18 10:09:00,69.9,67.8,29.99,SSW,202,3.0,7.0,93,0.00,,SKC,0.00,VWS V12.07,2013-05-18 15:09:00,
2013-05-18 10:16:00,70.4,67.7,29.99,SE,131,8.0,9.0,91,0.00,,SKC,0.00,VWS V12.07,2013-05-18 15:16:00,
2013-05-18 10:23:00,70.5,67.8,29.99,South,188,2.0,10.0,91,0.00,,SKC,0.00,VWS V12.07,2013-05-18 15:23:00,
2013-05-18 10:29:00,71.3,67.9,29.99,SE,128,3.0,10.0,89,0.00,,SKC,0.00,VWS V12.07,2013-05-18 15:29:00,
2013-05-18 10:37:00,72.2,68.1,29.99,SSE,148,8.0,9.0,87,0.00,,SKC,0.00,VWS V12.07,2013-05-18 15:37:00,
2013-05-18 10:43:00,72.2,68.1,29.99,SSE,150,3.0,10.0,87,0.00,,SKC,0.00,VWS V12.07,2013-05-18 15:43:00,
2013-05-18 10:49:00,72.2,68.1,29.99,East,98,5.0,10.0,87,0.00,,SKC,0.00,VWS V12.07,2013-05-18 15:49:00,
2013-05-18 10:56:00,72.8,68.0,29.99,SE,125,7.0,10.0,85,0.00,,SKC,0.00,VWS V12.07,2013-05-18 15:56:00,
2013-05-18 11:04:00,73.2,68.4,29.99,SE,141,4.0,11.0,85,0.00,,SKC,0.00,VWS V12.07,2013-05-18 16:04:00,
2013-05-18 11:10:00,73.4,68.6,29.99,East,81,7.0,11.0,85,0.00,,SKC,0.00,VWS V12.07,2013-05-18 16:10:00,
2013-05-18 11:17:00,73.4,68.6,29.99,South,183,1.0,11.0,85,0.00,,SKC,0.00,VWS V12.07,2013-05-18 16:17:00,
2013-05-18 11:24:00,73.6,68.8,29.98,ESE,110,5.0,11.0,85,0.00,,SKC,0.00,VWS V12.07,2013-05-18 16:24:00,
2013-05-18 11:30:00,73.4,68.3,29.98,SSE,148,4.0,11.0,84,0.00,,SKC,0.00,VWS V12.07,2013-05-18 16:30:00,
2013-05-18 11:36:00,74.3,68.4,29.98,SE,139,4.0,12.0,82,0.00,,SKC,0.00,VWS V12.07,2013-05-18 16:36:00,
2013-05-18 11:43:00,74.3,68.1,29.98,ESE,110,4.0,12.0,81,0.00,,SKC,0.00,VWS V12.07,2013-05-18 16:43:00,
2013-05-18 11:49:00,73.9,67.7,29.97,SE,134,8.0,12.0,81,0.00,,SKC,0.00,VWS V12.07,2013-05-18 16:49:00,
2013-05-18 11:56:00,74.5,69.0,29.97,ESE,120,5.0,12.0,83,0.00,,SKC,0.00,VWS V12.07,2013-05-18 16:56:00,
2013-05-18 12:04:00,75.0,68.8,29.96,SE,127,9.0,10.0,81,0.00,,SKC,0.00,VWS V12.07,2013-05-18 17:04:00,
2013-05-18 12:10:00,75.5,68.5,29.96,SE,128,4.0,10.0,79,0.00,,SKC,0.00,VWS V12.07,2013-05-18 17:10:00,
2013-05-18 12:17:00,75.3,68.0,29.96,SSE,150,5.0,10.0,78,0.00,,SKC,0.00,VWS V12.07,2013-05-18 17:17:00,
2013-05-18 12:24:00,75.7,68.0,29.95,SE,134,3.0,10.0,77,0.00,,SKC,0.00,VWS V12.07,2013-05-18 17:24:00,
2013-05-18 12:30:00,76.3,68.9,29.95,SE,136,4.0,10.0,78,0.00,,SKC,0.00,VWS V12.07,2013-05-18 17:30:00,
2013-05-18 12:37:00,76.3,67.8,29.95,ESE,112,10.0,13.0,75,0.00,,SKC,0.00,VWS V12.07,2013-05-18 17:37:00,
2013-05-18 12:44:00,76.3,67.8,29.95,East,97,6.0,13.0,75,0.00,,SKC,0.00,VWS V12.07,2013-05-18 17:44:00,
2013-05-18 12:50:00,76.9,69.5,29.95,SE,139,6.0,13.0,78,0.00,,SKC,0.00,VWS V12.07,2013-05-18 17:50:00,
2013-05-18 12:57:00,76.4,67.9,29.94,South,184,3.0,13.0,75,0.00,,SKC,0.00,VWS V12.07,2013-05-18 17:57:00,
2013-05-18 13:04:00,77.1,67.8,29.94,SSE,150,4.0,8.0,73,0.00,,SKC,0.00,VWS V12.07,2013-05-18 18:04:00,
2013-05-18 13:10:00,77.4,67.7,29.94,SE,138,2.0,9.0,72,0.00,,SKC,0.00,VWS V12.07,2013-05-18 18:10:00,
2013-05-18 13:17:00,78.2,68.4,29.94,SE,138,6.0,9.0,72,0.00,,SKC,0.00,VWS V12.07,2013-05-18 18:17:00,
2013-05-18 13:24:00,78.1,68.3,29.94,South,176,6.0,13.0,72,0.00,,SKC,0.00,VWS V12.07,2013-05-18 18:24:00,
2013-05-18 13:30:00,78.1,67.1,29.93,ESE,110,2.0,13.0,69,0.00,,SKC,0.00,VWS V12.07,2013-05-18 18:30:00,
2013-05-18 13:37:00,78.7,68.5,29.93,SE,132,6.0,9.0,71,0.00,,SKC,0.00,VWS V12.07,2013-05-18 18:37:00,
2013-05-18 13:44:00,78.3,67.7,29.93,SSE,149,4.0,13.0,70,0.00,,SKC,0.00,VWS V12.07,2013-05-18 18:44:00,
2013-05-18 13:50:00,78.1,68.3,29.93,SE,141,8.0,13.0,72,0.00,,SKC,0.00,VWS V12.07,2013-05-18 18:50:00,
2013-05-18 13:57:00,78.0,67.0,29.93,SE,138,4.0,13.0,69,0.00,,SKC,0.00,VWS V12.07,2013-05-18 18:57:00,
2013-05-18 14:04:00,78.1,67.5,29.92,SE,135,1.0,9.0,70,0.00,,SKC,0.00,VWS V12.07,2013-05-18 19:04:00,
2013-05-18 14:09:00,78.8,67.8,29.92,SE,129,3.0,11.0,69,0.00,,SKC,0.00,VWS V12.07,2013-05-18 19:09:00,
2013-05-18 14:19:00,79.2,68.2,29.92,ESE,111,5.0,12.0,69,0.00,,SKC,0.00,VWS V12.07,2013-05-18 19:19:00,
2013-05-18 14:25:00,78.8,69.4,29.92,South,174,4.0,12.0,73,0.00,,SKC,0.00,VWS V12.07,2013-05-18 19:25:00,
2013-05-18 14:32:00,78.6,68.0,29.92,ESE,108,5.0,7.0,70,0.00,,SKC,0.00,VWS V12.07,2013-05-18 19:32:00,
2013-05-18 14:39:00,78.9,67.4,29.92,SSE,153,6.0,11.0,68,0.00,,SKC,0.00,VWS V12.07,2013-05-18 19:39:00,
2013-05-18 14:45:00,78.5,67.5,29.92,SE,136,4.0,11.0,69,0.00,,SKC,0.00,VWS V12.07,2013-05-18 19:45:00,
2013-05-18 14:52:00,79.1,67.2,29.92,SE,126,2.0,11.0,67,0.00,,SKC,0.00,VWS V12.07,2013-05-18 19:52:00,
2013-05-18 14:59:00,79.4,68.3,29.92,SSE,163,4.0,11.0,69,0.00,,SKC,0.00,VWS V12.07,2013-05-18 19:59:00,
2013-05-18 15:05:00,79.8,68.3,29.92,SSE,166,2.0,7.0,68,0.00,,SKC,0.00,VWS V12.07,2013-05-18 20:05:00,
2013-05-18 15:12:00,80.0,68.1,29.92,SW,218,5.0,9.0,67,0.00,,SKC,0.00,VWS V12.07,2013-05-18 20:12:00,
2013-05-18 15:19:00,80.6,68.2,29.91,SSE,166,5.0,9.0,66,0.00,,SKC,0.00,VWS V12.07,2013-05-18 20:19:00,
2013-05-18 15:25:00,79.8,67.9,29.91,SSE,150,2.0,11.0,67,0.00,,SKC,0.00,VWS V12.07,2013-05-18 20:25:00,
2013-05-18 15:32:00,79.8,67.9,29.91,SE,128,5.0,6.0,67,0.00,,SKC,0.00,VWS V12.07,2013-05-18 20:32:00,
2013-05-18 15:39:00,79.8,67.0,29.91,South,188,5.0,11.0,65,0.00,,SKC,0.00,VWS V12.07,2013-05-18 20:39:00,
2013-05-18 15:45:00,79.2,68.2,29.91,ESE,113,3.0,11.0,69,0.00,,SKC,0.00,VWS V12.07,2013-05-18 20:45:00,
2013-05-18 15:52:00,79.9,67.5,29.91,SE,134,4.0,11.0,66,0.00,,SKC,0.00,VWS V12.07,2013-05-18 20:52:00,
2013-05-18 15:59:00,79.9,68.0,29.91,East,90,3.0,11.0,67,0.00,,SKC,0.00,VWS V12.07,2013-05-18 20:59:00,
2013-05-18 16:05:00,80.8,67.5,29.90,SE,128,5.0,6.0,64,0.00,,SKC,0.00,VWS V12.07,2013-05-18 21:05:00,
2013-05-18 16:12:00,81.1,67.3,29.90,SE,125,11.0,13.0,63,0.00,,SKC,0.00,VWS V12.07,2013-05-18 21:12:00,
2013-05-18 16:19:00,80.7,67.4,29.90,SE,135,7.0,13.0,64,0.00,,SKC,0.00,VWS V12.07,2013-05-18 21:19:00,
2013-05-18 16:25:00,80.8,67.5,29.90,SE,128,7.0,13.0,64,0.00,,SKC,0.00,VWS V12.07,2013-05-18 21:25:00,
2013-05-18 16:32:00,80.1,67.3,29.90,SSE,154,8.0,9.0,65,0.00,,SKC,0.00,VWS V12.07,2013-05-18 21:32:00,
2013-05-18 16:39:00,79.9,67.1,29.90,SE,146,4.0,9.0,65,0.00,,SKC,0.00,VWS V12.07,2013-05-18 21:39:00,
2013-05-18 16:45:00,80.1,67.3,29.90,SE,125,2.0,11.0,65,0.00,,SKC,0.00,VWS V12.07,2013-05-18 21:45:00,
2013-05-18 16:52:00,80.3,67.5,29.90,SE,141,4.0,11.0,65,0.00,,SKC,0.00,VWS V12.07,2013-05-18 21:52:00,
2013-05-18 16:59:00,80.0,67.2,29.90,SE,133,8.0,11.0,65,0.00,,SKC,0.00,VWS V12.07,2013-05-18 21:59:00,
2013-05-18 17:05:00,80.1,66.8,29.90,SSE,153,7.0,11.0,64,0.00,,SKC,0.00,VWS V12.07,2013-05-18 22:05:00,
2013-05-18 17:12:00,80.3,66.6,29.90,SE,146,4.0,11.0,63,0.00,,SKC,0.00,VWS V12.07,2013-05-18 22:12:00,
2013-05-18 17:19:00,79.5,66.7,29.90,ESE,105,3.0,11.0,65,0.00,,SKC,0.00,VWS V12.07,2013-05-18 22:19:00,
2013-05-18 17:25:00,79.2,66.9,29.90,SSE,158,3.0,11.0,66,0.00,,SKC,0.00,VWS V12.07,2013-05-18 22:25:00,
2013-05-18 17:32:00,79.3,67.4,29.90,SE,143,7.0,10.0,67,0.00,,SKC,0.00,VWS V12.07,2013-05-18 22:32:00,
2013-05-18 17:39:00,79.9,67.5,29.90,SE,128,4.0,11.0,66,0.00,,SKC,0.00,VWS V12.07,2013-05-18 22:39:00,
2013-05-18 17:45:00,80.6,67.8,29.89,ESE,105,9.0,11.0,65,0.00,,SKC,0.00,VWS V12.07,2013-05-18 22:45:00,
2013-05-18 17:52:00,80.5,67.2,29.89,SSE,149,3.0,11.0,64,0.00,,SKC,0.00,VWS V12.07,2013-05-18 22:52:00,
2013-05-18 17:59:00,80.6,67.8,29.89,SE,127,4.0,11.0,65,0.00,,SKC,0.00,VWS V12.07,2013-05-18 22:59:00,
2013-05-18 18:05:00,80.5,67.7,29.89,SE,145,3.0,7.0,65,0.00,,SKC,0.00,VWS V12.07,2013-05-18 23:05:00,
2013-05-18 18:12:00,80.3,67.9,29.89,SE,138,2.0,9.0,66,0.00,,SKC,0.00,VWS V12.07,2013-05-18 23:12:00,
2013-05-18 18:19:00,80.5,67.7,29.89,SE,146,2.0,9.0,65,0.00,,SKC,0.00,VWS V12.07,2013-05-18 23:19:00,
2013-05-18 18:25:00,80.5,67.7,29.89,SE,146,4.0,9.0,65,0.00,,SKC,0.00,VWS V12.07,2013-05-18 23:25:00,
2013-05-18 18:32:00,80.0,67.6,29.89,SE,125,5.0,6.0,66,0.00,,SKC,0.00,VWS V12.07,2013-05-18 23:32:00,
2013-05-18 18:39:00,79.7,67.3,29.89,SSE,150,2.0,7.0,66,0.00,,SKC,0.00,VWS V12.07,2013-05-18 23:39:00,
2013-05-18 18:45:00,79.7,67.8,29.88,ESE,113,5.0,7.0,67,0.00,,SKC,0.00,VWS V12.07,2013-05-18 23:45:00,
2013-05-18 18:52:00,79.7,67.8,29.88,SSW,212,2.0,7.0,67,0.00,,SKC,0.00,VWS V12.07,2013-05-18 23:52:00,
2013-05-18 18:59:00,79.5,67.2,29.88,ESE,113,7.0,7.0,66,0.00,,SKC,0.00,VWS V12.07,2013-05-18 23:59:00,
2013-05-18 19:05:00,79.1,67.2,29.88,SE,146,2.0,7.0,67,0.00,,SKC,0.00,VWS V12.07,2013-05-19 00:05:00,
2013-05-18 19:12:00,78.6,66.7,29.88,SSE,163,5.0,8.0,67,0.00,,SKC,0.00,VWS V12.07,2013-05-19 00:12:00,
2013-05-18 19:19:00,77.9,66.5,29.88,SSW,197,2.0,8.0,68,0.00,,SKC,0.00,VWS V12.07,2013-05-19 00:19:00,
2013-05-18 19:25:00,77.3,66.3,29.88,ESE,123,4.0,8.0,69,0.00,,SKC,0.00,VWS V12.07,2013-05-19 00:25:00,
2013-05-18 19:32:00,76.8,66.3,29.88,SE,145,2.0,6.0,70,0.00,,SKC,0.00,VWS V12.07,2013-05-19 00:32:00,
2013-05-18 19:39:00,76.4,66.3,29.88,SE,134,2.0,6.0,71,0.00,,SKC,0.00,VWS V12.07,2013-05-19 00:39:00,
2013-05-18 19:45:00,75.8,66.1,29.88,SE,134,2.0,6.0,72,0.00,,SKC,0.00,VWS V12.07,2013-05-19 00:45:00,
2013-05-18 19:52:00,75.2,66.0,29.88,SE,128,3.0,6.0,73,0.00,,SKC,0.00,VWS V12.07,2013-05-19 00:52:00,
2013-05-18 19:59:00,74.7,65.9,29.88,East,85,2.0,6.0,74,0.00,,SKC,0.00,VWS V12.07,2013-05-19 00:59:00,
2013-05-18 20:05:00,74.4,66.0,29.88,SE,135,2.0,4.0,75,0.00,,SKC,0.00,VWS V12.07,2013-05-19 01:05:00,
2013-05-18 20:12:00,74.0,66.0,29.88,SE,134,2.0,6.0,76,0.00,,SKC,0.00,VWS V12.07,2013-05-19 01:12:00,
2013-05-18 20:19:00,73.7,65.7,29.87,SE,134,0.0,6.0,76,0.00,,SKC,0.00,VWS V12.07,2013-05-19 01:19:00,
2013-05-18 20:25:00,73.5,65.9,29.87,SE,139,1.0,6.0,77,0.00,,SKC,0.00,VWS V12.07,2013-05-19 01:25:00,
2013-05-18 20:32:00,73.1,65.5,29.87,ESE,122,3.0,4.0,77,0.00,,SKC,0.00,VWS V12.07,2013-05-19 01:32:00,
2013-05-18 20:45:00,72.5,65.6,29.87,SSE,148,2.0,4.0,79,0.00,,SKC,0.00,VWS V12.07,2013-05-19 01:45:00,
2013-05-18 20:52:00,72.2,65.3,29.87,SE,138,3.0,4.0,79,0.00,,SKC,0.00,VWS V12.07,2013-05-19 01:52:00,
2013-05-18 20:59:00,72.0,65.1,29.86,SE,131,2.0,4.0,79,0.00,,SKC,0.00,VWS V12.07,2013-05-19 01:59:00,
2013-05-18 21:05:00,71.8,65.3,29.86,SE,136,3.0,5.0,80,0.00,,SKC,0.00,VWS V12.07,2013-05-19 02:05:00,
2013-05-18 21:12:00,71.7,65.2,29.86,SE,134,3.0,7.0,80,0.00,,SKC,0.00,VWS V12.07,2013-05-19 02:12:00,
2013-05-18 21:19:00,71.6,65.1,29.86,SE,133,2.0,9.0,80,0.00,,SKC,0.00,VWS V12.07,2013-05-19 02:19:00,
2013-05-18 21:25:00,71.7,65.2,29.85,SE,125,5.0,9.0,80,0.00,,SKC,0.00,VWS V12.07,2013-05-19 02:25:00,
2013-05-18 21:32:00,71.8,65.3,29.85,SE,136,4.0,7.0,80,0.00,,SKC,0.00,VWS V12.07,2013-05-19 02:32:00,
2013-05-18 21:39:00,71.8,64.9,29.85,ESE,123,5.0,7.0,79,0.00,,SKC,0.00,VWS V12.07,2013-05-19 02:39:00,
2013-05-18 21:45:00,71.8,64.9,29.84,SE,145,4.0,9.0,79,0.00,,SKC,0.00,VWS V12.07,2013-05-19 02:45:00,
2013-05-18 21:52:00,71.9,65.0,29.84,SE,138,5.0,9.0,79,0.00,,SKC,0.00,VWS V12.07,2013-05-19 02:52:00,
2013-05-18 21:59:00,71.8,64.9,29.84,SSE,160,7.0,9.0,79,0.00,,SKC,0.00,VWS V12.07,2013-05-19 02:59:00,
2013-05-18 22:05:00,71.8,64.9,29.85,SE,143,3.0,6.0,79,0.00,,SKC,0.00,VWS V12.07,2013-05-19 03:05:00,
2013-05-18 22:12:00,71.7,64.8,29.85,SSE,148,3.0,7.0,79,0.00,,SKC,0.00,VWS V12.07,2013-05-19 03:12:00,
2013-05-18 22:19:00,71.5,64.7,29.85,SSE,151,5.0,7.0,79,0.00,,SKC,0.00,VWS V12.07,2013-05-19 03:19:00,
2013-05-18 22:25:00,71.4,64.9,29.85,SSE,158,4.0,7.0,80,0.00,,SKC,0.00,VWS V12.07,2013-05-19 03:25:00,
2013-05-18 22:32:00,71.2,64.7,29.85,SE,134,1.0,5.0,80,0.00,,SKC,0.00,VWS V12.07,2013-05-19 03:32:00,
2013-05-18 22:39:00,71.1,65.0,29.85,SE,142,5.0,7.0,81,0.00,,SKC,0.00,VWS V12.07,2013-05-19 03:39:00,
2013-05-18 22:45:00,71.0,64.9,29.85,SE,129,2.0,7.0,81,0.00,,SKC,0.00,VWS V12.07,2013-05-19 03:45:00,
2013-05-18 22:52:00,70.8,64.7,29.86,SSW,207,2.0,7.0,81,0.00,,SKC,0.00,VWS V12.07,2013-05-19 03:52:00,
2013-05-18 22:59:00,70.7,64.9,29.86,SE,129,6.0,7.0,82,0.00,,SKC,0.00,VWS V12.07,2013-05-19 03:59:00,
2013-05-18 23:02:00,70.7,64.9,29.86,SE,130,3.0,3.0,82,0.00,,SKC,0.00,VWS V12.07,2013-05-19 04:02:00,
2013-05-18 23:05:00,70.6,64.8,29.86,SSE,155,3.0,5.0,82,0.00,,SKC,0.00,VWS V12.07,2013-05-19 04:05:00,
2013-05-18 23:09:00,70.5,64.8,29.86,SE,141,2.0,6.0,82,0.00,,SKC,0.00,VWS V12.07,2013-05-19 04:09:00,
2013-05-18 23:15:00,70.3,64.6,29.87,SE,140,1.0,6.0,82,0.00,,SKC,0.00,VWS V12.07,2013-05-19 04:15:00,
2013-05-18 23:22:00,70.1,64.7,29.86,SSE,154,2.0,6.0,83,0.00,,SKC,0.00,VWS V12.07,2013-05-19 04:22:00,
2013-05-18 23:29:00,70.0,64.6,29.87,SSE,156,2.0,6.0,83,0.00,,SKC,0.00,VWS V12.07,2013-05-19 04:29:00,
2013-05-18 23:35:00,69.9,64.5,29.87,South,169,3.0,4.0,83,0.00,,SKC,0.00,VWS V12.07,2013-05-19 04:35:00,
2013-05-18 23:42:00,69.9,64.8,29.86,SE,143,5.0,6.0,84,0.00,,SKC,0.00,VWS V12.07,2013-05-19 04:42:00,
2013-05-18 23:49:00,69.9,64.8,29.86,SE,141,3.0,11.0,84,0.00,,SKC,0.00,VWS V12.07,2013-05-19 04:49:00,
2013-05-18 23:55:00,69.9,64.8,29.86,ESE,122,4.0,11.0,84,0.00,,SKC,0.00,VWS V12.07,2013-05-19 04:55:00,